Time;durP1;ratioP1;P1;durP2;ratioP2;P2;SDS_P1;SDS_P2;PMS_P1;PMS_P2;Temp;Humidity;BMP_temperature;BMP_pressure;BME280_temperature;BME280_humidity;BME280_pressure;Samples;Min_cycle;Max_cycle;Signal;HPM_P1;HPM_P2
2021/08/03 00:00:14;;;;;;;3.60;2.35;;;12.90;99.90;;;;;;4971260;28;20051;-88
2021/08/03 00:02:44;;;;;;;4.05;2.60;;;12.80;99.90;;;;;;4973839;28;20073;-87
2021/08/03 00:05:13;;;;;;;5.68;1.95;;;12.80;99.90;;;;;;4967875;28;20043;-86
2021/08/03 00:07:39;;;;;;;4.28;2.38;;;12.80;99.90;;;;;;4981008;28;20031;-88
2021/08/03 00:10:05;;;;;;;5.97;1.95;;;12.80;99.90;;;;;;4967502;28;20510;-87
2021/08/03 00:12:31;;;;;;;5.40;2.33;;;12.70;99.90;;;;;;4969263;28;20034;-87
2021/08/03 00:14:57;;;;;;;5.30;2.63;;;12.70;99.90;;;;;;4971077;28;20027;-87
2021/08/03 00:17:25;;;;;;;5.55;2.47;;;12.70;99.90;;;;;;4973424;28;20036;-87
2021/08/03 00:19:53;;;;;;;4.82;2.17;;;12.70;99.90;;;;;;4972454;28;20428;-88
2021/08/03 00:22:22;;;;;;;8.02;2.20;;;12.70;99.90;;;;;;4971408;28;20034;-87
2021/08/03 00:24:48;;;;;;;5.47;1.95;;;12.70;99.90;;;;;;4962990;28;20098;-88
2021/08/03 00:27:15;;;;;;;5.75;1.95;;;12.70;99.90;;;;;;4972577;28;20043;-87
2021/08/03 00:29:40;;;;;;;4.80;2.65;;;12.70;99.90;;;;;;4972401;28;20180;-88
2021/08/03 00:32:07;;;;;;;6.15;3.13;;;12.70;99.90;;;;;;4971184;28;20118;-87
2021/08/03 00:34:35;;;;;;;7.32;2.50;;;12.80;99.90;;;;;;4973268;28;20035;-88
2021/08/03 00:37:01;;;;;;;4.70;2.33;;;12.70;99.90;;;;;;4967313;28;20101;-87
2021/08/03 00:39:26;;;;;;;4.53;2.30;;;12.70;99.90;;;;;;4973003;28;20579;-87
2021/08/03 00:41:58;;;;;;;6.03;2.80;;;12.70;99.90;;;;;;4970874;28;20058;-87
2021/08/03 00:44:45;;;;;;;3.57;2.33;;;12.80;99.90;;;;;;4964291;28;20376;-87
2021/08/03 00:47:13;;;;;;;5.57;1.90;;;12.80;99.90;;;;;;4972508;28;20041;-87
2021/08/03 00:49:39;;;;;;;7.25;2.78;;;12.80;99.90;;;;;;4970152;28;20023;-88
2021/08/03 00:52:07;;;;;;;10.15;3.10;;;12.80;99.90;;;;;;4971012;28;20038;-87
2021/08/03 00:54:33;;;;;;;4.00;2.13;;;12.80;99.90;;;;;;4971145;28;20027;-87
2021/08/03 00:56:59;;;;;;;6.15;2.13;;;12.80;99.90;;;;;;4967058;28;20034;-88
2021/08/03 00:59:24;;;;;;;4.53;2.35;;;12.80;99.90;;;;;;4973120;28;20015;-88
2021/08/03 01:01:50;;;;;;;5.20;2.10;;;12.80;99.90;;;;;;4971669;28;20066;-87
2021/08/03 01:04:17;;;;;;;4.40;1.73;;;12.80;99.90;;;;;;4971248;28;20510;-88
2021/08/03 01:07:08;;;;;;;4.25;1.98;;;12.80;99.90;;;;;;4971406;28;20042;-87
2021/08/03 01:10:01;;;;;;;4.20;2.13;;;12.90;99.90;;;;;;4968213;28;20031;-87
2021/08/03 01:12:44;;;;;;;5.20;2.08;;;12.90;99.90;;;;;;4959820;28;20038;-88
2021/08/03 01:15:17;;;;;;;7.88;2.00;;;13.00;99.90;;;;;;4976136;28;20027;-88
2021/08/03 01:18:03;;;;;;;;;;;13.00;99.90;;;;;;4964365;28;20042;-88
2021/08/03 01:20:39;;;;;;;4.68;2.50;;;13.00;99.90;;;;;;4946702;28;19910;-87
2021/08/03 01:23:49;;;;;;;4.03;1.58;;;13.00;99.90;;;;;;4968399;28;20037;-88
2021/08/03 01:26:47;;;;;;;4.03;1.55;;;13.00;99.90;;;;;;4953535;28;20046;-87
2021/08/03 01:29:17;;;;;;;3.40;1.58;;;13.00;99.90;;;;;;4971497;28;20419;-87
2021/08/03 01:31:48;;;;;;;4.70;1.92;;;12.90;99.90;;;;;;4971285;28;20085;-87
2021/08/03 01:34:16;;;;;;;3.33;2.03;;;12.90;99.90;;;;;;4971880;28;20027;-88
2021/08/03 01:36:46;;;;;;;2.97;2.10;;;12.90;99.90;;;;;;4971341;28;20023;-87
2021/08/03 01:39:17;;;;;;;3.58;1.63;;;13.00;99.90;;;;;;4986813;28;20026;-87
2021/08/03 01:41:48;;;;;;;7.25;2.50;;;13.00;99.90;;;;;;4966717;28;20114;-87
2021/08/03 01:44:14;;;;;;;4.97;2.15;;;13.00;99.90;;;;;;4953549;28;20487;-88
2021/08/03 01:46:42;;;;;;;4.80;2.17;;;13.00;99.90;;;;;;4969581;28;20023;-88
2021/08/03 01:49:09;;;;;;;5.30;2.15;;;13.00;99.90;;;;;;4971960;28;20085;-88
2021/08/03 01:51:35;;;;;;;4.03;1.60;;;13.00;99.90;;;;;;4970355;28;20108;-87
2021/08/03 01:54:03;;;;;;;4.25;1.95;;;13.00;99.90;;;;;;4970990;28;20026;-88
2021/08/03 01:56:29;;;;;;;4.95;1.58;;;13.00;99.90;;;;;;4961147;28;20057;-88
2021/08/03 01:58:56;;;;;;;4.22;1.70;;;13.00;99.90;;;;;;4954485;28;20658;-87
2021/08/03 02:01:23;;;;;;;3.97;1.77;;;12.90;99.90;;;;;;4972496;28;20035;-87
2021/08/03 02:03:50;;;;;;;5.35;1.77;;;12.90;99.90;;;;;;4961276;28;20554;-88
2021/08/03 02:06:17;;;;;;;5.10;1.90;;;12.90;99.90;;;;;;4971883;28;20043;-87
2021/08/03 02:08:44;;;;;;;4.32;2.10;;;12.90;99.90;;;;;;4972265;28;20531;-87
2021/08/03 02:11:10;;;;;;;7.80;1.63;;;12.90;99.90;;;;;;4973337;28;20022;-88
2021/08/03 02:13:35;;;;;;;4.80;1.90;;;13.00;99.90;;;;;;4965194;28;20031;-88
2021/08/03 02:16:01;;;;;;;4.70;1.42;;;12.90;99.90;;;;;;4968758;28;20027;-87
2021/08/03 02:18:27;;;;;;;5.03;2.08;;;13.00;99.90;;;;;;4984275;28;20031;-88
2021/08/03 02:20:53;;;;;;;5.20;2.13;;;13.00;99.90;;;;;;4971157;28;20034;-88
2021/08/03 02:23:19;;;;;;;5.55;1.92;;;13.00;99.90;;;;;;4970077;28;20487;-88
2021/08/03 02:25:44;;;;;;;6.70;1.85;;;13.00;99.90;;;;;;4966364;28;20175;-87
2021/08/03 02:28:10;;;;;;;5.88;2.00;;;13.00;99.90;;;;;;4957681;28;20098;-87
2021/08/03 02:30:36;;;;;;;4.32;1.73;;;12.90;99.90;;;;;;4957334;28;20126;-87
2021/08/03 02:33:06;;;;;;;3.70;1.75;;;13.00;99.90;;;;;;4966520;28;20028;-88
2021/08/03 02:35:38;;;;;;;4.28;2.05;;;12.90;99.90;;;;;;4957164;28;20031;-87
2021/08/03 02:38:06;;;;;;;5.05;2.13;;;12.90;99.90;;;;;;4964869;28;20031;-88
2021/08/03 02:40:32;;;;;;;4.05;2.22;;;12.90;99.90;;;;;;4973494;28;20423;-87
2021/08/03 02:43:00;;;;;;;7.40;2.80;;;12.80;99.90;;;;;;4966780;28;20027;-88
2021/08/03 02:45:26;;;;;;;3.03;1.92;;;12.80;99.90;;;;;;4974355;28;20098;-87
2021/08/03 02:47:56;;;;;;;5.07;1.95;;;12.80;99.90;;;;;;4972948;28;20023;-88
2021/08/03 02:50:24;;;;;;;4.38;2.28;;;12.70;99.90;;;;;;4975017;28;20027;-88
2021/08/03 02:52:53;;;;;;;3.45;2.08;;;12.80;99.90;;;;;;4965289;28;20114;-87
2021/08/03 02:55:45;;;;;;;6.60;2.33;;;12.80;99.90;;;;;;4960973;28;20055;-88
2021/08/03 02:58:14;;;;;;;3.83;1.73;;;12.80;99.90;;;;;;4957730;28;20042;-88
2021/08/03 03:00:41;;;;;;;3.45;1.98;;;12.80;99.90;;;;;;4971367;28;20475;-88
2021/08/03 03:03:13;;;;;;;5.53;2.00;;;12.90;99.90;;;;;;4956157;28;20027;-88
2021/08/03 03:05:40;;;;;;;3.72;2.38;;;12.80;99.90;;;;;;4972306;28;20074;-88
2021/08/03 03:08:09;;;;;;;3.00;1.80;;;12.90;99.90;;;;;;4971519;28;20497;-87
2021/08/03 03:10:39;;;;;;;5.70;2.03;;;12.80;99.90;;;;;;4958861;28;20038;-87
2021/08/03 03:13:29;;;;;;;4.15;2.22;;;12.90;99.90;;;;;;4958130;28;20027;-88
2021/08/03 03:15:56;;;;;;;3.78;2.33;;;12.90;99.90;;;;;;4960612;28;20514;-87
2021/08/03 03:18:22;;;;;;;4.00;1.77;;;12.90;99.90;;;;;;4967054;28;20070;-88
2021/08/03 03:20:49;;;;;;;3.95;2.08;;;12.90;99.90;;;;;;4974556;28;20049;-88
2021/08/03 03:23:18;;;;;;;3.72;2.25;;;12.90;99.90;;;;;;4958788;28;20107;-87
2021/08/03 03:25:47;;;;;;;6.38;2.13;;;13.00;99.90;;;;;;4958690;28;20035;-88
2021/08/03 03:28:13;;;;;;;4.68;2.08;;;13.00;99.90;;;;;;4968481;28;20471;-87
2021/08/03 03:30:39;;;;;;;3.20;2.22;;;13.00;99.90;;;;;;4971278;28;20027;-87
2021/08/03 03:33:05;;;;;;;5.43;2.10;;;13.00;99.90;;;;;;4967727;28;20031;-87
2021/08/03 03:35:35;;;;;;;5.80;2.20;;;13.00;99.90;;;;;;4966648;28;20047;-87
2021/08/03 03:38:01;;;;;;;6.68;2.45;;;13.10;99.90;;;;;;4968940;28;20078;-87
2021/08/03 03:40:28;;;;;;;6.65;2.45;;;13.10;99.90;;;;;;4973851;28;20019;-87
2021/08/03 03:42:56;;;;;;;3.25;2.30;;;13.10;99.90;;;;;;4970092;28;20035;-88
2021/08/03 03:45:22;;;;;;;4.15;2.05;;;13.10;99.90;;;;;;4970124;28;20063;-88
2021/08/03 03:48:06;;;;;;;9.48;2.20;;;13.20;99.90;;;;;;4956999;28;20444;-87
2021/08/03 03:50:40;;;;;;;5.07;2.35;;;13.20;99.90;;;;;;4968627;28;20105;-87
2021/08/03 03:53:12;;;;;;;5.30;2.30;;;13.20;99.90;;;;;;4970661;28;20042;-87
2021/08/03 03:55:42;;;;;;;5.27;2.57;;;13.20;99.90;;;;;;4972911;28;20077;-87
2021/08/03 03:58:08;;;;;;;6.57;2.60;;;13.20;99.90;;;;;;4971503;28;20030;-87
2021/08/03 04:00:37;;;;;;;3.75;2.13;;;13.20;99.90;;;;;;4971033;28;20019;-87
2021/08/03 04:03:05;;;;;;;6.55;3.53;;;13.20;99.90;;;;;;4970439;28;20126;-87
2021/08/03 04:05:34;;;;;;;5.88;2.80;;;13.20;99.90;;;;;;4965872;28;20086;-88
2021/08/03 04:08:00;;;;;;;3.78;2.42;;;13.20;99.90;;;;;;4964815;28;20027;-87
2021/08/03 04:10:35;;;;;;;8.38;2.97;;;13.20;99.90;;;;;;4964607;28;20434;-87
2021/08/03 04:13:00;;;;;;;5.88;2.63;;;13.20;99.90;;;;;;4967242;28;20454;-87
2021/08/03 04:15:27;;;;;;;6.32;2.90;;;13.20;99.90;;;;;;4972363;28;20159;-88
2021/08/03 04:17:52;;;;;;;6.65;3.15;;;13.20;99.90;;;;;;4967612;28;20505;-87
2021/08/03 04:20:18;;;;;;;5.68;3.08;;;13.20;99.90;;;;;;4966058;28;20031;-87
2021/08/03 04:22:44;;;;;;;6.53;2.58;;;13.20;99.90;;;;;;4970455;28;20030;-87
2021/08/03 04:25:09;;;;;;;6.00;3.42;;;13.30;99.90;;;;;;4969867;28;20038;-87
2021/08/03 04:27:35;;;;;;;7.57;3.47;;;13.30;99.90;;;;;;4971171;28;20039;-87
2021/08/03 04:30:01;;;;;;;4.90;3.20;;;13.30;99.90;;;;;;4967796;28;20030;-87
2021/08/03 04:32:26;;;;;;;5.55;2.67;;;13.30;99.90;;;;;;4972648;28;20031;-87
2021/08/03 04:34:52;;;;;;;4.45;2.80;;;13.30;99.90;;;;;;4972568;28;20396;-87
2021/08/03 04:37:17;;;;;;;5.82;3.20;;;13.30;99.90;;;;;;4962042;28;20023;-88
2021/08/03 04:39:43;;;;;;;6.05;3.85;;;13.30;99.90;;;;;;4955294;28;20050;-87
2021/08/03 04:42:08;;;;;;;4.75;3.33;;;13.40;99.90;;;;;;4965957;28;20113;-88
2021/08/03 04:44:34;;;;;;;5.65;3.10;;;13.30;99.90;;;;;;4954677;29;20487;-88
2021/08/03 04:46:59;;;;;;;5.72;3.75;;;13.30;99.90;;;;;;4962896;28;20015;-88
2021/08/03 04:49:25;;;;;;;4.88;2.60;;;13.30;99.90;;;;;;4973366;28;20058;-87
2021/08/03 04:51:51;;;;;;;6.32;3.70;;;13.30;99.90;;;;;;4972804;28;20034;-88
2021/08/03 04:54:17;;;;;;;12.40;4.70;;;13.30;99.90;;;;;;4973185;28;20046;-86
2021/08/03 04:56:42;;;;;;;6.15;3.75;;;13.20;99.90;;;;;;4964046;28;20023;-87
2021/08/03 04:59:08;;;;;;;7.15;4.25;;;13.20;99.90;;;;;;4963471;28;20037;-87
2021/08/03 05:01:33;;;;;;;7.53;3.88;;;13.20;99.90;;;;;;4968384;28;20065;-88
2021/08/03 05:04:00;;;;;;;8.50;3.75;;;13.20;99.90;;;;;;4973418;28;20134;-87
2021/08/03 05:06:26;;;;;;;6.72;3.97;;;13.30;99.90;;;;;;4973575;28;20022;-88
2021/08/03 05:08:51;;;;;;;6.32;4.20;;;13.20;99.90;;;;;;4971733;28;20081;-88
2021/08/03 05:11:17;;;;;;;5.90;4.60;;;13.30;99.90;;;;;;4967898;28;20020;-88
2021/08/03 05:13:42;;;;;;;8.45;4.72;;;13.20;99.90;;;;;;4965703;28;20027;-87
2021/08/03 05:16:08;;;;;;;6.55;4.00;;;13.30;99.90;;;;;;4972973;28;20049;-87
2021/08/03 05:18:34;;;;;;;7.07;4.13;;;13.30;99.90;;;;;;4964576;28;20035;-88
2021/08/03 05:20:59;;;;;;;8.07;4.07;;;13.40;99.90;;;;;;4968408;28;20027;-87
2021/08/03 05:23:25;;;;;;;6.30;4.22;;;13.40;99.90;;;;;;4971641;28;20383;-89
2021/08/03 05:25:51;;;;;;;9.27;5.13;;;13.50;99.90;;;;;;4972947;28;20086;-87
2021/08/03 05:28:17;;;;;;;6.95;3.92;;;13.60;99.90;;;;;;4961850;28;20055;-87
2021/08/03 05:30:44;;;;;;;6.32;3.95;;;13.60;99.90;;;;;;4960834;28;20034;-90
2021/08/03 05:33:10;;;;;;;6.97;4.43;;;13.70;99.90;;;;;;4971334;28;20110;-86
2021/08/03 05:35:36;;;;;;;8.05;4.43;;;13.90;99.90;;;;;;4972712;28;20065;-88
2021/08/03 05:38:02;;;;;;;6.47;4.45;;;14.00;99.90;;;;;;4970340;28;20017;-86
2021/08/03 05:40:27;;;;;;;8.93;5.22;;;14.10;99.90;;;;;;4969896;28;20507;-87
2021/08/03 05:42:53;;;;;;;9.93;5.30;;;14.20;99.90;;;;;;4971525;28;20536;-86
2021/08/03 05:45:18;;;;;;;6.93;5.30;;;14.30;99.90;;;;;;4967761;28;20040;-87
2021/08/03 05:47:44;;;;;;;10.50;6.82;;;14.40;99.90;;;;;;4967218;28;20078;-87
2021/08/03 05:50:10;;;;;;;7.90;5.93;;;14.40;99.90;;;;;;4963795;28;20067;-88
2021/08/03 05:52:36;;;;;;;6.20;5.38;;;14.50;99.90;;;;;;4968565;28;20031;-87
2021/08/03 05:55:01;;;;;;;8.13;6.38;;;14.60;99.90;;;;;;4964555;28;20106;-87
2021/08/03 05:57:30;;;;;;;10.45;6.05;;;14.70;99.90;;;;;;4969071;28;20507;-87
2021/08/03 05:59:56;;;;;;;8.30;6.70;;;14.80;99.90;;;;;;4973268;28;20062;-87
2021/08/03 06:02:21;;;;;;;11.20;7.88;;;14.80;99.90;;;;;;4963008;28;20055;-88
2021/08/03 06:04:47;;;;;;;14.00;9.88;;;14.90;99.90;;;;;;4971786;28;20050;-87
2021/08/03 06:07:14;;;;;;;17.77;11.07;;;15.00;99.90;;;;;;4967851;28;20479;-87
2021/08/03 06:09:42;;;;;;;14.35;11.27;;;15.10;99.90;;;;;;4970598;28;20058;-87
2021/08/03 06:12:10;;;;;;;18.08;12.07;;;15.30;99.90;;;;;;4969232;28;20027;-87
2021/08/03 06:14:40;;;;;;;19.77;13.50;;;15.30;99.90;;;;;;4970395;28;20038;-87
2021/08/03 06:17:14;;;;;;;19.27;13.68;;;15.50;99.90;;;;;;4976348;28;20023;-87
2021/08/03 06:19:50;;;;;;;19.40;15.63;;;15.50;99.90;;;;;;4977533;28;20434;-88
2021/08/03 06:22:17;;;;;;;22.92;19.05;;;15.60;99.90;;;;;;4976924;28;20054;-88
2021/08/03 06:24:44;;;;;;;25.23;18.77;;;15.60;99.90;;;;;;4974943;28;20074;-88
2021/08/03 06:27:15;;;;;;;22.73;17.70;;;15.70;99.90;;;;;;4974757;28;20050;-88
2021/08/03 06:29:40;;;;;;;24.55;18.88;;;15.80;99.90;;;;;;4977131;28;20035;-87
2021/08/03 06:32:08;;;;;;;24.77;19.15;;;16.00;99.90;;;;;;4961053;28;20027;-87
2021/08/03 06:34:36;;;;;;;23.92;18.88;;;16.20;99.80;;;;;;4970223;28;20097;-88
2021/08/03 06:37:01;;;;;;;23.92;17.90;;;16.30;99.70;;;;;;4974146;28;20106;-87
2021/08/03 06:39:27;;;;;;;22.55;18.55;;;16.40;99.50;;;;;;4977517;28;20161;-87
2021/08/03 06:42:01;;;;;;;22.58;18.42;;;16.60;99.20;;;;;;4978926;28;20031;-87
2021/08/03 06:44:34;;;;;;;21.48;16.70;;;16.70;99.10;;;;;;4975427;28;20046;-88
2021/08/03 06:47:01;;;;;;;21.50;16.52;;;16.90;98.80;;;;;;4967816;28;20031;-87
2021/08/03 06:49:30;;;;;;;21.15;16.40;;;17.00;98.40;;;;;;4959158;28;20035;-88
2021/08/03 06:51:57;;;;;;;24.50;16.77;;;17.00;98.00;;;;;;4965030;28;20471;-88
2021/08/03 06:54:27;;;;;;;20.50;15.80;;;16.90;97.90;;;;;;4977283;28;20134;-86
2021/08/03 06:57:11;;;;;;;20.05;15.32;;;17.00;98.00;;;;;;4977049;28;20047;-87
2021/08/03 06:59:52;;;;;;;18.13;16.13;;;17.00;97.80;;;;;;4958892;28;20040;-87
2021/08/03 07:02:28;;;;;;;19.80;15.63;;;17.10;97.60;;;;;;4979180;28;20077;-88
2021/08/03 07:05:01;;;;;;;18.52;15.38;;;17.10;97.60;;;;;;4968215;28;20046;-87
2021/08/03 07:07:27;;;;;;;21.92;18.35;;;17.20;97.60;;;;;;4971401;28;20043;-88
2021/08/03 07:09:54;;;;;;;19.15;17.00;;;17.30;97.00;;;;;;4970298;28;20115;-88
2021/08/03 07:12:22;;;;;;;21.55;17.65;;;17.40;97.00;;;;;;4966905;28;20037;-88
2021/08/03 07:14:49;;;;;;;19.42;15.90;;;17.50;96.80;;;;;;4977829;28;20081;-88
2021/08/03 07:17:15;;;;;;;20.35;16.02;;;17.60;96.60;;;;;;4969514;28;20039;-87
2021/08/03 07:19:43;;;;;;;23.60;16.80;;;17.80;96.40;;;;;;4977438;28;20027;-87
2021/08/03 07:22:13;;;;;;;20.45;16.80;;;17.90;96.20;;;;;;4976684;28;20023;-88
2021/08/03 07:24:41;;;;;;;18.75;14.98;;;18.00;95.60;;;;;;4977963;28;20479;-87
2021/08/03 07:27:07;;;;;;;21.83;16.35;;;18.00;95.40;;;;;;4968000;28;20392;-87
2021/08/03 07:29:32;;;;;;;18.73;15.38;;;18.10;95.00;;;;;;4976544;28;20030;-87
2021/08/03 07:31:58;;;;;;;17.77;14.43;;;18.20;94.90;;;;;;4976552;28;20048;-88
2021/08/03 07:34:24;;;;;;;18.92;14.43;;;18.20;94.60;;;;;;4971716;28;20038;-87
2021/08/03 07:36:49;;;;;;;17.58;13.98;;;18.20;94.50;;;;;;4965762;28;20090;-88
2021/08/03 07:39:15;;;;;;;14.40;12.50;;;18.30;94.50;;;;;;4977342;28;20372;-88
2021/08/03 07:41:41;;;;;;;14.38;12.07;;;18.40;94.20;;;;;;4975681;28;20038;-89
2021/08/03 07:44:07;;;;;;;21.58;15.07;;;18.40;94.00;;;;;;4962997;28;20491;-88
2021/08/03 07:46:34;;;;;;;18.67;13.88;;;18.40;93.70;;;;;;4967569;28;20034;-88
2021/08/03 07:49:03;;;;;;;16.17;13.70;;;18.50;94.00;;;;;;4976280;28;20042;-88
2021/08/03 07:51:28;;;;;;;15.40;12.85;;;18.60;93.70;;;;;;4965699;28;20027;-88
2021/08/03 07:53:54;;;;;;;13.98;11.43;;;18.80;93.30;;;;;;4977893;28;20109;-88
2021/08/03 07:56:20;;;;;;;14.60;11.23;;;19.00;93.00;;;;;;4976014;28;20031;-88
2021/08/03 07:58:46;;;;;;;15.23;12.10;;;19.20;92.90;;;;;;4975226;28;20416;-88
2021/08/03 08:01:13;;;;;;;12.55;9.68;;;19.40;92.40;;;;;;4976474;28;20031;-88
2021/08/03 08:03:38;;;;;;;11.10;8.20;;;19.50;91.70;;;;;;4972351;28;20034;-89
2021/08/03 08:06:05;;;;;;;10.70;6.95;;;19.60;91.20;;;;;;4974016;28;20581;-89
2021/08/03 08:08:32;;;;;;;8.30;6.30;;;19.70;90.90;;;;;;4975109;28;20035;-87
2021/08/03 08:10:58;;;;;;;10.90;6.55;;;19.80;90.60;;;;;;4970654;28;20042;-88
2021/08/03 08:13:23;;;;;;;5.35;3.97;;;20.00;90.10;;;;;;4957477;28;20035;-88
2021/08/03 08:15:49;;;;;;;6.10;3.50;;;20.00;89.30;;;;;;4964764;28;20027;-87
2021/08/03 08:18:15;;;;;;;5.07;3.33;;;20.10;88.80;;;;;;4973500;28;20030;-89
2021/08/03 08:20:42;;;;;;;4.47;2.85;;;20.10;87.00;;;;;;4976352;28;20035;-89
2021/08/03 08:23:09;;;;;;;6.38;3.50;;;20.00;86.30;;;;;;4976148;28;20027;-88
2021/08/03 08:25:36;;;;;;;8.10;4.57;;;20.10;85.70;;;;;;4976080;28;20035;-88
2021/08/03 08:28:02;;;;;;;11.57;5.85;;;20.00;85.70;;;;;;4977514;28;20550;-88
2021/08/03 08:30:27;;;;;;;9.05;5.00;;;20.00;84.80;;;;;;4977546;28;20035;-93
2021/08/03 08:32:53;;;;;;;7.38;4.90;;;19.90;84.80;;;;;;4973487;28;20027;-88
2021/08/03 08:35:19;;;;;;;8.98;5.07;;;19.80;84.40;;;;;;4974344;28;20360;-92
2021/08/03 08:37:44;;;;;;;10.45;5.75;;;19.80;84.80;;;;;;4975206;28;20054;-92
2021/08/03 08:40:11;;;;;;;17.52;6.55;;;19.80;84.60;;;;;;4973131;28;20482;-91
2021/08/03 08:42:38;;;;;;;14.00;6.38;;;19.80;83.80;;;;;;4974984;28;20479;-91
2021/08/03 08:45:07;;;;;;;11.55;5.47;;;19.80;84.40;;;;;;4971975;28;20041;-93
2021/08/03 08:47:32;;;;;;;13.63;6.47;;;19.90;84.00;;;;;;4970018;28;20030;-92
2021/08/03 08:50:05;;;;;;;10.93;5.68;;;20.00;82.90;;;;;;4974687;28;20031;-93
2021/08/03 08:52:36;;;;;;;13.90;5.88;;;20.00;82.30;;;;;;4973874;28;20026;-92
2021/08/03 08:55:03;;;;;;;11.40;6.55;;;20.10;81.90;;;;;;4973508;28;20038;-92
2021/08/03 08:57:28;;;;;;;9.65;5.50;;;20.00;82.60;;;;;;4974540;28;20030;-92
2021/08/03 08:59:54;;;;;;;10.18;5.47;;;20.10;83.60;;;;;;4976443;28;20027;-91
2021/08/03 09:02:39;;;;;;;7.80;5.03;;;20.20;82.70;;;;;;4976135;28;20398;-92
2021/08/03 09:05:05;;;;;;;10.70;5.43;;;20.40;82.80;;;;;;4976444;28;20039;-91
2021/08/03 09:07:30;;;;;;;8.00;4.90;;;20.50;83.00;;;;;;4975872;28;20026;-91
2021/08/03 09:09:56;;;;;;;8.23;5.20;;;20.50;82.20;;;;;;4975137;28;20109;-91
2021/08/03 09:12:33;;;;;;;6.03;4.50;;;20.50;81.90;;;;;;4976317;28;20034;-91
2021/08/03 09:14:59;;;;;;;6.20;4.60;;;20.60;81.90;;;;;;4971730;28;20054;-91
2021/08/03 09:17:27;;;;;;;8.65;4.97;;;20.70;81.60;;;;;;4967118;28;20031;-91
2021/08/03 09:19:52;;;;;;;6.38;4.25;;;20.70;81.40;;;;;;4955925;28;20114;-92
2021/08/03 09:22:22;;;;;;;4.57;3.63;;;20.80;80.20;;;;;;4966638;28;20458;-90
2021/08/03 09:24:51;;;;;;;5.53;3.95;;;20.80;80.30;;;;;;4973665;28;20392;-91
2021/08/03 09:27:31;;;;;;;5.75;4.10;;;20.80;79.90;;;;;;4974049;28;20046;-92
2021/08/03 09:29:57;;;;;;;5.43;3.28;;;20.80;79.10;;;;;;4972420;28;20049;-92
2021/08/03 09:32:30;;;;;;;5.00;3.33;;;20.70;79.00;;;;;;4964013;28;20061;-93
2021/08/03 09:35:07;;;;;;;7.43;4.32;;;20.80;79.70;;;;;;4973492;28;20047;-91
2021/08/03 09:37:33;;;;;;;5.95;3.92;;;20.90;78.90;;;;;;4974976;28;20039;-92
2021/08/03 09:39:59;;;;;;;8.50;4.50;;;20.80;78.60;;;;;;4974819;28;20034;-92
2021/08/03 09:42:27;;;;;;;7.78;4.47;;;20.70;78.00;;;;;;4975012;28;20026;-91
2021/08/03 09:44:53;;;;;;;9.13;4.80;;;20.80;78.00;;;;;;4975241;28;20043;-90
2021/08/03 09:47:20;;;;;;;6.00;4.10;;;20.80;77.70;;;;;;4973371;28;20050;-89
2021/08/03 09:49:50;;;;;;;6.13;4.00;;;20.80;77.50;;;;;;4976649;28;20027;-90
2021/08/03 09:52:19;;;;;;;6.55;4.05;;;20.70;76.80;;;;;;4981194;28;20027;-91
2021/08/03 09:54:45;;;;;;;5.07;3.00;;;20.70;77.30;;;;;;4976177;28;20034;-90
2021/08/03 09:57:25;;;;;;;6.25;3.53;;;20.80;76.90;;;;;;4972564;28;20062;-91
2021/08/03 09:59:52;;;;;;;7.00;3.05;;;20.90;76.70;;;;;;4977528;28;20030;-91
2021/08/03 10:02:23;;;;;;;6.20;3.95;;;20.90;76.60;;;;;;4987383;28;20081;-91
2021/08/03 10:04:50;;;;;;;6.97;3.78;;;21.00;76.00;;;;;;4971739;28;20039;-90
2021/08/03 10:07:16;;;;;;;5.22;3.50;;;21.10;76.00;;;;;;4974251;28;20023;-90
2021/08/03 10:09:43;;;;;;;5.80;4.20;;;21.20;74.90;;;;;;4974387;28;20558;-91
2021/08/03 10:12:09;;;;;;;6.43;4.28;;;21.20;74.50;;;;;;4976799;28;20027;-92
2021/08/03 10:14:35;;;;;;;8.68;3.95;;;21.20;74.40;;;;;;4977373;28;20037;-90
2021/08/03 10:17:01;;;;;;;9.63;4.07;;;21.20;74.70;;;;;;4977320;28;20102;-91
2021/08/03 10:19:29;;;;;;;6.28;4.18;;;21.30;74.60;;;;;;4977678;28;20104;-91
2021/08/03 10:22:06;;;;;;;8.43;4.32;;;21.50;74.60;;;;;;4974377;28;20023;-91
2021/08/03 10:24:37;;;;;;;8.98;4.75;;;21.60;74.40;;;;;;4975466;28;20102;-91
2021/08/03 10:27:11;;;;;;;9.50;5.07;;;21.70;74.40;;;;;;4957749;28;20051;-91
2021/08/03 10:29:46;;;;;;;12.23;5.57;;;21.90;74.20;;;;;;4958275;28;20031;-91
2021/08/03 10:32:46;;;;;;;10.02;6.32;;;22.10;73.90;;;;;;4974026;28;20031;-90
2021/08/03 10:35:16;;;;;;;7.38;5.38;;;22.30;73.10;;;;;;4973806;28;20373;-92
2021/08/03 10:37:56;;;;;;;9.20;5.22;;;22.30;72.20;;;;;;4974422;28;20027;-91
2021/08/03 10:40:48;;;;;;;8.93;6.68;;;22.30;71.70;;;;;;4991971;28;20031;-90
2021/08/03 10:43:20;;;;;;;8.60;6.47;;;22.30;72.20;;;;;;4976884;28;20038;-91
2021/08/03 10:45:47;;;;;;;6.63;4.45;;;22.40;71.60;;;;;;4960098;28;20032;-89
2021/08/03 10:48:53;;;;;;;8.80;3.75;;;22.50;70.60;;;;;;4960277;28;20031;-91
2021/08/03 10:51:18;;;;;;;10.00;6.03;;;22.50;69.30;;;;;;4924006;29;20187;-90
2021/08/03 10:54:09;;;;;;;8.68;5.68;;;22.60;69.40;;;;;;4961602;28;20078;-90
2021/08/03 10:56:55;;;;;;;6.80;5.78;;;22.70;69.40;;;;;;4977621;28;20505;-90
2021/08/03 10:59:41;;;;;;;9.20;7.53;;;22.70;69.00;;;;;;4978160;28;20035;-90
2021/08/03 11:02:22;;;;;;;9.07;7.60;;;22.70;69.10;;;;;;4968520;28;20031;-91
2021/08/03 11:04:49;;;;;;;12.20;8.63;;;22.70;69.40;;;;;;4979400;28;20031;-91
2021/08/03 11:07:27;;;;;;;14.05;10.35;;;22.80;70.10;;;;;;4978227;28;20033;-89
2021/08/03 11:09:58;;;;;;;12.10;8.40;;;22.90;69.80;;;;;;4978327;28;20074;-90
2021/08/03 11:12:35;;;;;;;15.18;9.25;;;22.90;70.40;;;;;;4977841;28;20515;-89
2021/08/03 11:15:21;;;;;;;468.85;60.15;;;22.90;70.20;;;;;;4978742;28;20035;-92
2021/08/03 11:18:18;;;;;;;202.40;33.13;;;23.00;70.70;;;;;;4984264;28;20495;-91
2021/08/03 11:20:45;;;;;;;163.98;28.35;;;23.00;71.10;;;;;;4979025;28;20033;-94
2021/08/03 11:23:16;;;;;;;26.48;12.68;;;22.90;70.90;;;;;;4970862;28;20039;-90
2021/08/03 11:25:43;;;;;;;17.88;10.70;;;22.80;70.90;;;;;;4979846;28;20381;-92
2021/08/03 11:28:17;;;;;;;14.75;10.75;;;22.80;71.00;;;;;;4976653;28;20050;-90
2021/08/03 11:30:45;;;;;;;14.05;9.07;;;22.80;71.20;;;;;;4979732;28;20030;-92
2021/08/03 11:33:12;;;;;;;14.68;10.93;;;22.80;71.20;;;;;;4977674;28;20053;-92
2021/08/03 11:35:39;;;;;;;14.63;10.00;;;22.80;71.10;;;;;;4978323;28;20035;-90
2021/08/03 11:38:09;;;;;;;16.35;10.50;;;22.70;71.20;;;;;;4977860;28;20057;-92
2021/08/03 11:40:36;;;;;;;11.70;7.75;;;22.70;71.00;;;;;;4972227;28;20089;-91
2021/08/03 11:43:03;;;;;;;11.63;8.73;;;22.80;71.00;;;;;;4979895;28;20089;-91
2021/08/03 11:45:29;;;;;;;13.57;9.25;;;22.80;70.20;;;;;;4976502;28;20046;-93
2021/08/03 11:47:57;;;;;;;9.45;7.75;;;22.90;68.90;;;;;;4977611;28;20023;-92
2021/08/03 11:50:29;;;;;;;9.23;6.80;;;22.90;69.10;;;;;;4981550;28;20035;-95
2021/08/03 11:53:04;;;;;;;9.15;6.55;;;23.10;68.60;;;;;;5001941;28;20031;-95
2021/08/03 11:55:41;;;;;;;10.20;7.30;;;23.40;68.40;;;;;;4986881;28;20032;-96
2021/08/03 11:58:07;;;;;;;11.38;8.15;;;23.60;66.80;;;;;;4972265;28;20030;-95
2021/08/03 12:00:34;;;;;;;11.02;8.10;;;23.80;66.00;;;;;;4980905;28;20039;-95
2021/08/03 12:03:02;;;;;;;10.05;7.65;;;23.90;65.60;;;;;;4985925;28;20055;-95
2021/08/03 12:05:31;;;;;;;10.18;8.82;;;24.00;64.80;;;;;;4981677;28;20054;-95
2021/08/03 12:08:12;;;;;;;11.82;8.77;;;23.90;64.30;;;;;;4976173;28;20020;-93
2021/08/03 12:10:48;;;;;;;9.52;7.72;;;23.90;63.40;;;;;;4976070;28;20089;-95
2021/08/03 12:13:34;;;;;;;9.27;7.53;;;23.70;63.80;;;;;;4974854;28;20035;-94
2021/08/03 12:16:02;;;;;;;7.53;6.43;;;23.80;64.40;;;;;;4978162;28;20024;-94
2021/08/03 12:18:41;;;;;;;12.77;7.25;;;23.80;64.80;;;;;;4978115;28;20500;-93
2021/08/03 12:21:09;;;;;;;8.68;7.55;;;24.00;64.20;;;;;;4976786;28;20168;-94
2021/08/03 12:23:39;;;;;;;9.27;7.60;;;24.20;63.90;;;;;;4981313;28;20479;-96
2021/08/03 12:26:22;;;;;;;9.15;7.40;;;24.30;63.10;;;;;;4978395;28;20106;-93
2021/08/03 12:28:50;;;;;;;8.35;6.88;;;24.10;62.50;;;;;;4962922;29;20087;-94
2021/08/03 12:31:30;;;;;;;7.50;5.75;;;23.90;62.50;;;;;;4974249;28;20031;-94
2021/08/03 12:34:19;;;;;;;10.40;7.85;;;23.70;62.70;;;;;;4978370;28;20076;-93
2021/08/03 12:36:57;;;;;;;8.93;6.88;;;23.70;62.80;;;;;;4980073;28;20027;-95
2021/08/03 12:39:28;;;;;;;12.23;7.80;;;23.60;63.60;;;;;;4979478;28;20157;-94
2021/08/03 12:42:09;;;;;;;7.35;6.57;;;23.60;64.30;;;;;;4961911;28;20027;-93
2021/08/03 12:44:37;;;;;;;8.02;7.22;;;23.60;64.00;;;;;;4958092;28;20035;-94
2021/08/03 12:47:26;;;;;;;9.77;6.78;;;23.40;63.50;;;;;;4974286;28;20027;-93
2021/08/03 12:50:07;;;;;;;9.63;7.00;;;23.10;63.70;;;;;;4958290;28;20030;-94
2021/08/03 12:52:34;;;;;;;13.60;7.83;;;23.00;63.80;;;;;;4973121;28;20492;-94
2021/08/03 12:55:11;;;;;;;8.45;7.60;;;23.10;64.40;;;;;;4971769;28;20278;-95